Time;durP1;ratioP1;P1;durP2;ratioP2;P2;SDS_P1;SDS_P2;PMS_P1;PMS_P2;Temp;Humidity;BMP_temperature;BMP_pressure;BME280_temperature;BME280_humidity;BME280_pressure;Samples;Min_cycle;Max_cycle;Signal;HPM_P1;HPM_P2
2022/06/06 00:00:22;;;;;;;40.40;16.33;;;17.00;99.90;;;;;;5058236;28;20040;-63
2022/06/06 00:02:49;;;;;;;44.05;17.73;;;17.00;99.90;;;;;;5064031;28;20039;-61
2022/06/06 00:05:16;;;;;;;46.60;18.05;;;17.00;99.90;;;;;;5064031;28;20025;-63
2022/06/06 00:07:42;;;;;;;43.25;18.15;;;16.90;99.90;;;;;;5058106;28;20021;-60
2022/06/06 00:10:09;;;;;;;37.90;15.23;;;16.90;99.90;;;;;;5058372;28;20387;-62
2022/06/06 00:12:35;;;;;;;38.40;17.58;;;16.90;99.90;;;;;;5062238;28;20016;-63
2022/06/06 00:15:02;;;;;;;37.58;17.55;;;16.90;99.90;;;;;;5062609;28;20034;-61
2022/06/06 00:17:27;;;;;;;38.85;17.60;;;16.90;99.90;;;;;;5064035;28;20414;-60
2022/06/06 00:19:53;;;;;;;44.20;18.88;;;16.90;99.90;;;;;;5070947;28;20032;-59
2022/06/06 00:22:18;;;;;;;40.65;18.05;;;16.90;99.90;;;;;;5069852;28;20021;-62
2022/06/06 00:24:44;;;;;;;41.67;18.75;;;16.90;99.90;;;;;;5059386;28;20120;-62
2022/06/06 00:27:09;;;;;;;47.33;20.58;;;16.80;99.90;;;;;;5061485;28;20109;-62
2022/06/06 00:29:35;;;;;;;51.20;20.13;;;16.90;99.90;;;;;;5052373;28;20024;-62
2022/06/06 00:34:49;;;;;;;59.17;22.17;;;16.90;99.90;;;;;;5061883;28;20032;-63
2022/06/06 00:37:17;;;;;;;48.72;22.60;;;17.00;99.90;;;;;;5059159;28;20064;-62
2022/06/06 00:39:44;;;;;;;50.25;21.20;;;17.00;99.90;;;;;;5064963;28;20024;-64
2022/06/06 00:42:21;;;;;;;50.22;22.23;;;17.00;99.90;;;;;;5065850;28;20025;-62
2022/06/06 00:44:47;;;;;;;46.67;20.80;;;17.00;99.90;;;;;;5061557;28;20020;-61
2022/06/06 00:47:16;;;;;;;39.13;17.88;;;17.10;99.90;;;;;;5067076;28;20053;-62
2022/06/06 00:49:45;;;;;;;46.42;17.85;;;17.10;99.90;;;;;;5060736;28;20097;-62
2022/06/06 00:52:15;;;;;;;41.30;16.75;;;17.10;99.90;;;;;;5065317;28;20032;-62
2022/06/06 00:54:42;;;;;;;35.10;17.02;;;17.10;99.90;;;;;;5062556;28;20048;-61
2022/06/06 00:57:15;;;;;;;34.85;16.50;;;17.00;99.90;;;;;;5058422;28;20642;-59
2022/06/06 00:59:42;;;;;;;39.03;18.50;;;17.00;99.90;;;;;;5062420;28;20041;-64
2022/06/06 01:02:10;;;;;;;39.35;16.73;;;17.00;99.90;;;;;;5060227;28;20438;-59
2022/06/06 01:04:36;;;;;;;38.53;16.70;;;17.00;99.90;;;;;;5061021;28;20021;-60
2022/06/06 01:07:04;;;;;;;38.63;16.90;;;17.00;99.90;;;;;;5059072;28;20036;-59
2022/06/06 01:09:30;;;;;;;35.72;16.75;;;17.00;99.90;;;;;;5069181;28;20473;-58
2022/06/06 01:12:01;;;;;;;33.97;16.45;;;16.90;99.90;;;;;;5061726;28;20083;-60
2022/06/06 01:14:32;;;;;;;43.88;19.55;;;17.00;99.90;;;;;;5066055;28;20025;-61
2022/06/06 01:17:05;;;;;;;44.47;19.48;;;17.00;99.90;;;;;;5064137;28;20438;-59
2022/06/06 01:19:43;;;;;;;49.75;21.15;;;16.90;99.90;;;;;;5063617;28;20028;-61
2022/06/06 01:22:49;;;;;;;38.40;19.05;;;16.90;99.90;;;;;;5065649;28;20038;-60
2022/06/06 01:25:35;;;;;;;45.65;20.45;;;16.90;99.90;;;;;;5063384;28;20028;-60
2022/06/06 01:28:26;;;;;;;52.17;20.48;;;16.90;99.90;;;;;;5063767;28;20017;-61
2022/06/06 01:30:57;;;;;;;41.30;19.88;;;16.90;99.90;;;;;;5061611;28;20888;-61
2022/06/06 01:33:23;;;;;;;51.65;20.48;;;16.90;99.90;;;;;;5056541;28;20063;-60
2022/06/06 01:35:52;;;;;;;40.35;17.38;;;16.80;99.90;;;;;;5058500;28;20060;-66
2022/06/06 01:38:23;;;;;;;38.08;17.50;;;16.80;99.90;;;;;;5057242;28;20115;-59
2022/06/06 01:40:55;;;;;;;32.95;15.93;;;16.80;99.90;;;;;;5053520;28;20120;-58
2022/06/06 01:43:29;;;;;;;34.75;15.02;;;16.80;99.90;;;;;;5064422;28;20024;-57
2022/06/06 01:46:00;;;;;;;29.63;14.55;;;16.80;99.90;;;;;;5064235;28;20348;-64
2022/06/06 01:48:36;;;;;;;23.95;13.70;;;16.80;99.90;;;;;;5069039;28;20016;-62
2022/06/06 01:51:09;;;;;;;30.92;14.50;;;16.80;99.90;;;;;;5066711;28;20052;-61
2022/06/06 01:53:37;;;;;;;30.75;13.50;;;16.80;99.90;;;;;;5053230;28;20021;-59
2022/06/06 01:56:05;;;;;;;28.90;12.77;;;16.80;99.90;;;;;;5061381;28;20459;-63
2022/06/06 01:58:32;;;;;;;29.98;13.68;;;16.80;99.90;;;;;;5042736;28;20207;-62
2022/06/06 02:00:58;;;;;;;25.67;12.50;;;16.80;99.90;;;;;;5063245;28;20912;-62
2022/06/06 02:03:24;;;;;;;28.92;12.88;;;16.70;99.90;;;;;;5062263;28;20061;-62
2022/06/06 02:05:50;;;;;;;23.73;11.05;;;16.70;99.90;;;;;;5066799;28;20115;-63
2022/06/06 02:08:16;;;;;;;20.67;10.82;;;16.70;99.90;;;;;;5059399;28;20614;-63
2022/06/06 02:10:43;;;;;;;21.95;10.68;;;16.70;99.90;;;;;;5063469;28;20033;-62
2022/06/06 02:13:08;;;;;;;25.50;12.13;;;16.70;99.90;;;;;;5063030;28;20020;-62
2022/06/06 02:15:34;;;;;;;24.77;9.57;;;16.70;99.90;;;;;;5054405;28;20044;-62
2022/06/06 02:18:00;;;;;;;17.15;9.07;;;16.60;99.90;;;;;;5064998;28;20105;-64
2022/06/06 02:20:28;;;;;;;18.33;10.15;;;16.60;99.90;;;;;;5059552;28;20028;-61
2022/06/06 02:22:54;;;;;;;19.35;9.35;;;16.60;99.90;;;;;;5065756;28;20177;-61
2022/06/06 02:25:21;;;;;;;19.73;10.85;;;16.60;99.90;;;;;;5064354;28;21282;-63
2022/06/06 02:27:47;;;;;;;18.38;9.20;;;16.60;99.90;;;;;;5054921;28;20032;-63
2022/06/06 02:30:17;;;;;;;21.77;10.10;;;16.60;99.90;;;;;;5065113;28;20021;-64
2022/06/06 02:32:43;;;;;;;21.25;10.52;;;16.60;99.90;;;;;;5057401;28;20029;-63
2022/06/06 02:35:17;;;;;;;19.23;8.75;;;16.60;99.90;;;;;;5062916;28;20524;-63
2022/06/06 02:37:45;;;;;;;17.90;10.07;;;16.60;99.90;;;;;;5058464;28;20379;-64
2022/06/06 02:40:12;;;;;;;20.75;9.02;;;16.50;99.90;;;;;;5062609;28;20099;-61
2022/06/06 02:42:38;;;;;;;16.25;8.25;;;16.50;99.90;;;;;;5061625;28;20058;-58
2022/06/06 02:45:06;;;;;;;16.80;8.05;;;16.50;99.90;;;;;;5061324;28;20032;-65
2022/06/06 02:47:32;;;;;;;16.10;7.80;;;16.50;99.90;;;;;;5064479;28;20037;-62
2022/06/06 02:49:57;;;;;;;33.05;9.57;;;16.50;99.90;;;;;;5062325;28;20078;-64
2022/06/06 02:52:23;;;;;;;16.27;7.05;;;16.40;99.90;;;;;;5071251;28;20025;-63
2022/06/06 02:54:48;;;;;;;12.65;6.80;;;16.40;99.90;;;;;;5068843;28;20117;-63
2022/06/06 02:57:14;;;;;;;16.08;9.00;;;16.30;99.90;;;;;;5063793;28;20044;-62
2022/06/06 02:59:43;;;;;;;11.93;6.57;;;16.30;99.90;;;;;;5057313;28;20501;-61
2022/06/06 03:02:09;;;;;;;16.10;7.97;;;16.30;99.90;;;;;;5062115;28;20025;-59
2022/06/06 03:04:37;;;;;;;16.27;8.52;;;16.30;99.90;;;;;;5064900;28;20364;-61
2022/06/06 03:07:24;;;;;;;14.73;7.50;;;16.30;99.90;;;;;;5066018;28;20530;-63
2022/06/06 03:10:34;;;;;;;17.20;7.82;;;16.30;99.90;;;;;;5065030;28;20025;-56
2022/06/06 03:13:38;;;;;;;17.52;7.63;;;16.30;99.90;;;;;;5064757;28;20104;-57
2022/06/06 03:22:54;;;;;;;11.48;5.70;;;16.30;99.90;;;;;;5010902;28;20458;-60
2022/06/06 03:25:30;;;;;;;11.15;5.68;;;16.40;99.90;;;;;;5067593;28;20024;-54
2022/06/06 03:28:11;;;;;;;10.63;5.88;;;16.40;99.90;;;;;;5069871;28;20033;-61
2022/06/06 03:30:51;;;;;;;13.68;6.85;;;16.40;99.90;;;;;;5063060;28;20023;-63
2022/06/06 03:33:27;;;;;;;12.77;5.03;;;16.40;99.90;;;;;;5067554;28;20426;-61
2022/06/06 03:36:20;;;;;;;9.80;5.18;;;16.30;99.90;;;;;;5064100;28;20031;-58
2022/06/06 03:39:12;;;;;;;11.50;6.28;;;16.30;99.90;;;;;;5063634;28;20025;-63
2022/06/06 03:41:52;;;;;;;13.20;6.15;;;16.30;99.90;;;;;;5064264;28;20525;-63
2022/06/06 03:44:41;;;;;;;12.60;6.05;;;16.30;99.90;;;;;;5067553;28;20040;-59
2022/06/06 03:47:20;;;;;;;9.35;6.25;;;16.30;99.90;;;;;;5067255;28;20021;-61
2022/06/06 03:50:29;;;;;;;15.57;5.80;;;16.30;99.90;;;;;;5061117;28;20029;-61
2022/06/06 03:53:36;;;;;;;13.55;6.53;;;16.20;99.90;;;;;;5066119;28;20024;-63
2022/06/06 03:56:04;;;;;;;9.63;5.78;;;16.20;99.90;;;;;;5059389;28;20056;-59
2022/06/06 03:58:32;;;;;;;10.98;5.43;;;16.20;99.90;;;;;;5060917;28;20394;-61
2022/06/06 04:01:02;;;;;;;10.73;5.95;;;16.20;99.90;;;;;;5064948;28;20032;-61
2022/06/06 04:03:28;;;;;;;14.07;4.82;;;16.20;99.90;;;;;;5066192;28;20086;-62
2022/06/06 04:05:56;;;;;;;12.15;6.18;;;16.20;99.90;;;;;;5067543;28;20031;-62
2022/06/06 04:08:21;;;;;;;9.80;5.75;;;16.20;99.90;;;;;;5057886;28;20066;-64
2022/06/06 04:11:07;;;;;;;11.15;5.50;;;16.20;99.90;;;;;;5060671;28;20029;-60
2022/06/06 04:13:50;;;;;;;9.80;5.60;;;16.20;99.90;;;;;;5065821;28;20056;-61
2022/06/06 04:16:52;;;;;;;12.15;6.28;;;16.20;99.90;;;;;;5061887;28;20074;-62
2022/06/06 04:19:33;;;;;;;13.43;6.07;;;16.20;99.90;;;;;;5057194;28;20395;-62
2022/06/06 04:22:34;;;;;;;10.02;5.40;;;16.20;99.90;;;;;;5061544;28;20032;-60
2022/06/06 04:25:20;;;;;;;10.63;5.20;;;16.20;99.90;;;;;;5063874;28;20064;-58
2022/06/06 04:28:14;;;;;;;10.70;5.18;;;16.20;99.90;;;;;;5063254;28;20104;-63
2022/06/06 04:31:05;;;;;;;10.68;5.93;;;16.30;99.90;;;;;;5062651;28;20041;-62
2022/06/06 04:34:03;;;;;;;9.40;5.47;;;16.30;99.90;;;;;;5061654;28;20021;-63
2022/06/06 04:36:35;;;;;;;9.65;5.15;;;16.30;99.90;;;;;;5060118;28;20060;-58
2022/06/06 04:39:21;;;;;;;8.05;4.78;;;16.30;99.90;;;;;;5055079;28;20029;-64
2022/06/06 04:41:54;;;;;;;8.43;4.72;;;16.30;99.90;;;;;;5061793;28;20120;-64
2022/06/06 04:44:38;;;;;;;8.02;4.95;;;16.30;99.90;;;;;;5064176;28;20032;-65
2022/06/06 04:47:23;;;;;;;12.45;5.32;;;16.30;99.90;;;;;;5064871;28;20061;-61
2022/06/06 04:49:49;;;;;;;11.68;5.40;;;16.30;99.90;;;;;;5064421;28;20537;-63
2022/06/06 04:52:18;;;;;;;11.38;6.03;;;16.40;99.90;;;;;;5060196;28;20024;-61
2022/06/06 04:54:45;;;;;;;8.48;4.75;;;16.40;99.90;;;;;;5056953;28;20410;-58
2022/06/06 04:57:12;;;;;;;9.98;5.30;;;16.40;99.90;;;;;;5058652;28;20039;-63
2022/06/06 04:59:40;;;;;;;7.32;4.60;;;16.40;99.90;;;;;;5063000;28;20039;-62
2022/06/06 05:02:06;;;;;;;9.63;5.13;;;16.40;99.90;;;;;;5091323;22;20067;-61
2022/06/06 05:04:31;;;;;;;8.80;5.13;;;16.30;99.90;;;;;;5068765;28;20526;-63
2022/06/06 05:07:15;;;;;;;7.10;4.63;;;16.30;99.90;;;;;;5071027;28;20052;-60
2022/06/06 05:09:53;;;;;;;9.43;5.20;;;16.30;99.90;;;;;;5068252;28;20035;-60
2022/06/06 05:12:18;;;;;;;7.22;4.03;;;16.30;99.90;;;;;;5057456;28;20051;-60
2022/06/06 05:15:03;;;;;;;7.28;4.68;;;16.30;99.90;;;;;;5048471;28;20029;-63
2022/06/06 05:18:00;;;;;;;8.05;4.63;;;16.30;99.90;;;;;;5049141;28;20154;-63
2022/06/06 05:20:40;;;;;;;7.13;3.85;;;16.20;99.90;;;;;;5043523;28;20025;-64
2022/06/06 05:23:26;;;;;;;9.63;4.97;;;16.20;99.90;;;;;;5047486;28;20033;-62
2022/06/06 05:26:14;;;;;;;6.97;4.38;;;16.10;99.90;;;;;;5027958;28;20032;-64
2022/06/06 05:29:14;;;;;;;9.95;5.10;;;16.20;99.90;;;;;;5042698;28;20125;-59
2022/06/06 05:32:16;;;;;;;8.98;4.85;;;16.20;99.90;;;;;;5036028;28;20114;-61
2022/06/06 05:34:51;;;;;;;9.77;4.85;;;16.30;99.90;;;;;;5046566;28;20025;-62
2022/06/06 05:37:55;;;;;;;10.40;5.03;;;16.40;99.90;;;;;;5047891;28;20516;-62
2022/06/06 05:40:44;;;;;;;8.57;4.97;;;16.50;99.90;;;;;;5047871;28;20059;-62
2022/06/06 05:43:34;;;;;;;10.20;4.70;;;16.60;99.90;;;;;;5037002;28;20374;-61
2022/06/06 05:46:24;;;;;;;6.13;4.07;;;16.50;99.90;;;;;;5045578;28;20043;-63
2022/06/06 05:49:09;;;;;;;5.40;3.90;;;16.50;99.90;;;;;;5044148;28;20071;-63
2022/06/06 05:52:02;;;;;;;6.28;4.07;;;16.40;99.90;;;;;;5048618;28;20055;-60
2022/06/06 05:54:34;;;;;;;5.68;3.40;;;16.40;99.90;;;;;;5027889;28;20031;-60
2022/06/06 05:57:28;;;;;;;5.47;3.60;;;16.40;99.90;;;;;;5044069;28;20017;-64
2022/06/06 06:00:16;;;;;;;5.72;3.20;;;16.50;99.90;;;;;;5045737;28;20021;-61
2022/06/06 06:03:08;;;;;;;5.90;3.45;;;16.60;99.90;;;;;;5045006;28;20037;-61
2022/06/06 06:06:13;;;;;;;3.38;2.65;;;16.80;99.90;;;;;;5043774;28;20135;-60
2022/06/06 06:08:55;;;;;;;5.60;2.78;;;16.90;99.90;;;;;;5045269;28;20124;-62
2022/06/06 06:11:48;;;;;;;4.00;2.40;;;17.00;99.90;;;;;;5045217;28;20078;-61
2022/06/06 06:14:36;;;;;;;3.58;2.42;;;17.00;99.90;;;;;;5043931;28;20043;-61
2022/06/06 06:17:03;;;;;;;4.03;2.28;;;16.90;99.90;;;;;;5047574;28;20025;-63
2022/06/06 06:19:45;;;;;;;7.82;2.30;;;16.90;99.90;;;;;;5047144;28;20378;-61
2022/06/06 06:22:13;;;;;;;2.50;1.77;;;16.90;99.90;;;;;;5043775;28;20118;-61
2022/06/06 06:24:41;;;;;;;3.03;2.15;;;16.90;99.90;;;;;;5045656;28;20411;-60
2022/06/06 06:27:07;;;;;;;4.43;2.20;;;17.00;99.90;;;;;;5053305;28;20111;-62
2022/06/06 06:29:33;;;;;;;3.00;1.65;;;17.10;99.90;;;;;;5048707;28;20029;-62
2022/06/06 06:32:08;;;;;;;4.10;2.45;;;17.20;99.90;;;;;;5045629;28;20416;-65
2022/06/06 06:34:41;;;;;;;3.33;1.75;;;17.30;99.90;;;;;;5052396;28;20059;-62
2022/06/06 06:37:36;;;;;;;5.40;1.48;;;17.40;99.90;;;;;;5051540;28;20086;-60
2022/06/06 06:40:40;;;;;;;3.03;1.70;;;17.50;99.90;;;;;;5045327;28;20044;-63
2022/06/06 06:43:19;;;;;;;3.67;1.90;;;17.40;99.90;;;;;;5047687;28;20021;-65
2022/06/06 06:45:50;;;;;;;2.85;1.38;;;17.60;99.90;;;;;;5047483;28;20100;-63
2022/06/06 06:48:26;;;;;;;5.18;1.52;;;17.70;99.90;;;;;;5049324;28;20051;-64
2022/06/06 06:51:18;;;;;;;3.30;1.70;;;17.70;99.90;;;;;;5044603;28;20028;-62
2022/06/06 06:53:59;;;;;;;4.45;1.70;;;17.70;99.90;;;;;;5050475;28;20040;-62
2022/06/06 06:57:04;;;;;;;1.77;1.40;;;17.50;99.90;;;;;;5047897;28;20402;-61
2022/06/06 07:00:04;;;;;;;1.10;1.00;;;17.50;99.90;;;;;;5028187;28;20550;-61
2022/06/06 07:09:34;;;;;;;2.30;1.10;;;17.40;99.90;;;;;;5049460;28;20937;-61
2022/06/06 07:12:34;;;;;;;5.47;1.48;;;17.30;99.90;;;;;;5047425;28;20021;-63
2022/06/06 07:15:05;;;;;;;4.63;1.50;;;17.30;99.90;;;;;;5049207;28;20089;-62
2022/06/06 07:17:37;;;;;;;2.72;1.60;;;17.30;99.90;;;;;;5049635;28;20123;-64
2022/06/06 07:20:06;;;;;;;2.28;1.35;;;17.40;99.90;;;;;;5047728;28;20021;-62
2022/06/06 07:25:22;;;;;;;5.28;1.55;;;17.50;99.90;;;;;;5046062;28;20067;-63
2022/06/06 07:27:48;;;;;;;1.38;1.05;;;17.50;99.90;;;;;;5050860;28;20048;-61
2022/06/06 07:30:14;;;;;;;1.45;1.17;;;17.60;99.90;;;;;;5050744;28;20033;-63
2022/06/06 07:33:00;;;;;;;5.95;1.58;;;17.60;99.90;;;;;;5047199;28;20013;-61
2022/06/06 07:35:40;;;;;;;1.80;1.20;;;17.70;99.90;;;;;;5049203;28;20139;-65
2022/06/06 07:38:17;;;;;;;3.22;1.25;;;17.70;99.90;;;;;;5045848;28;20032;-62
2022/06/06 07:40:51;;;;;;;3.33;1.20;;;17.80;99.90;;;;;;5045321;28;20025;-64
2022/06/06 07:43:44;;;;;;;3.10;1.33;;;17.80;99.90;;;;;;5047998;28;20471;-59
2022/06/06 07:46:25;;;;;;;2.13;1.10;;;17.90;99.90;;;;;;5046571;28;20025;-61
2022/06/06 07:48:59;;;;;;;1.63;0.93;;;17.90;99.90;;;;;;5049294;28;20030;-64
2022/06/06 07:51:41;;;;;;;2.85;1.20;;;17.90;99.90;;;;;;5044206;28;20066;-60
2022/06/06 07:54:26;;;;;;;1.20;1.10;;;18.00;99.90;;;;;;5047626;28;20024;-62
2022/06/06 07:57:00;;;;;;;1.73;1.27;;;18.10;99.90;;;;;;5048954;28;20037;-62
2022/06/06 08:00:10;;;;;;;1.98;1.60;;;18.10;99.90;;;;;;5029499;28;20028;-61
2022/06/06 08:02:55;;;;;;;3.13;1.40;;;18.20;99.90;;;;;;5034727;28;20045;-64
2022/06/06 08:05:40;;;;;;;1.52;1.25;;;18.20;99.90;;;;;;5045015;28;20026;-63
2022/06/06 08:08:12;;;;;;;5.45;1.40;;;18.30;99.90;;;;;;5046204;28;20387;-64
2022/06/06 08:10:43;;;;;;;2.72;1.10;;;18.40;99.90;;;;;;5047856;28;20524;-64
2022/06/06 08:13:41;;;;;;;2.25;1.25;;;18.50;99.90;;;;;;5042047;28;20396;-62
2022/06/06 08:16:29;;;;;;;1.45;1.30;;;18.70;99.90;;;;;;5041864;28;20036;-64
2022/06/06 08:18:58;;;;;;;1.23;0.90;;;18.80;99.90;;;;;;5045580;28;20021;-63
2022/06/06 08:21:43;;;;;;;1.17;0.75;;;18.70;99.90;;;;;;5042653;28;20111;-63
2022/06/06 08:24:21;;;;;;;1.45;0.90;;;18.70;99.90;;;;;;5045529;28;20563;-65
2022/06/06 08:26:49;;;;;;;2.70;0.90;;;18.50;99.90;;;;;;5043660;28;20029;-64
2022/06/06 08:29:16;;;;;;;1.10;1.00;;;18.50;99.90;;;;;;5041963;28;20087;-63
2022/06/06 08:31:41;;;;;;;2.45;1.02;;;18.50;99.90;;;;;;5044065;28;20032;-62
2022/06/06 08:34:07;;;;;;;1.10;0.75;;;18.50;99.90;;;;;;5048057;28;20087;-62
2022/06/06 08:36:36;;;;;;;1.35;0.73;;;18.50;99.90;;;;;;5042426;28;20135;-63
2022/06/06 08:39:15;;;;;;;3.00;0.73;;;18.60;99.90;;;;;;5046889;28;20028;-61
2022/06/06 08:41:57;;;;;;;4.10;1.00;;;18.80;99.90;;;;;;5044496;28;20833;-60
2022/06/06 08:44:36;;;;;;;3.95;1.60;;;18.90;99.90;;;;;;5043156;28;20100;-59
2022/06/06 08:47:29;;;;;;;0.80;0.80;;;19.20;99.90;;;;;;5047692;28;20040;-62
2022/06/06 08:53:48;;;;;;;3.93;0.80;;;19.70;99.90;;;;;;5042702;28;20078;-61
2022/06/06 08:56:25;;;;;;;1.73;0.80;;;19.60;99.90;;;;;;5043807;28;20153;-59
2022/06/06 08:59:04;;;;;;;3.90;0.80;;;19.50;99.90;;;;;;5046030;28;20025;-61
2022/06/06 09:01:35;;;;;;;2.33;0.70;;;19.60;99.90;;;;;;5043649;28;20087;-61
2022/06/06 09:04:26;;;;;;;0.95;0.80;;;19.60;99.90;;;;;;5044866;28;20513;-60
2022/06/06 09:07:25;;;;;;;1.80;0.75;;;19.80;99.90;;;;;;5047149;28;20090;-61
2022/06/06 09:10:03;;;;;;;2.38;0.73;;;19.70;99.90;;;;;;5044025;28;20124;-62
2022/06/06 09:12:40;;;;;;;1.70;0.68;;;19.80;99.90;;;;;;5042647;28;20021;-60
2022/06/06 09:15:14;;;;;;;0.57;0.57;;;19.90;99.90;;;;;;5041968;28;20021;-62
2022/06/06 09:17:53;;;;;;;0.90;0.70;;;19.90;99.90;;;;;;5046620;28;20025;-61
2022/06/06 09:20:36;;;;;;;1.40;0.80;;;19.90;99.90;;;;;;5043570;28;20028;-61
2022/06/06 09:23:56;;;;;;;1.05;0.60;;;20.30;99.90;;;;;;5040815;28;20040;-60
2022/06/06 09:26:39;;;;;;;1.05;0.60;;;20.70;99.90;;;;;;4944371;28;20047;-62
2022/06/06 09:29:32;;;;;;;1.40;0.90;;;20.70;99.90;;;;;;5032543;28;20037;-60
2022/06/06 09:32:25;;;;;;;2.60;0.50;;;20.50;99.90;;;;;;5044470;28;20029;-62
2022/06/06 09:35:00;;;;;;;1.27;0.82;;;20.50;99.90;;;;;;5029000;28;20087;-61
2022/06/06 09:37:26;;;;;;;;;;;19.90;99.90;;;;;;5045219;28;20751;-62
2022/06/06 09:39:56;;;;;;;2.60;0.70;;;19.70;99.90;;;;;;5041993;28;19912;-62
2022/06/06 09:42:44;;;;;;;1.70;1.17;;;19.60;99.90;;;;;;5044156;28;20017;-62
2022/06/06 09:45:33;;;;;;;2.90;0.85;;;19.30;99.90;;;;;;5043782;28;20534;-64
2022/06/06 09:48:26;;;;;;;0.80;0.80;;;18.50;99.90;;;;;;5046315;28;20064;-61
2022/06/06 09:51:11;;;;;;;4.55;1.83;;;17.70;99.90;;;;;;5047113;28;20240;-62
2022/06/06 10:00:27;;;;;;;2.22;1.17;;;17.30;99.90;;;;;;5048251;28;20039;-60
2022/06/06 10:03:37;;;;;;;1.55;1.10;;;17.60;99.90;;;;;;5044225;28;20041;-61
2022/06/06 10:06:26;;;;;;;3.22;1.10;;;17.60;99.90;;;;;;5046948;28;20029;-63
2022/06/06 10:09:13;;;;;;;1.60;0.85;;;17.90;99.90;;;;;;5038987;28;20124;-60
2022/06/06 10:12:07;;;;;;;3.78;1.23;;;17.80;99.90;;;;;;5041626;28;20495;-61
2022/06/06 10:14:51;;;;;;;2.00;1.08;;;17.80;99.90;;;;;;5039392;28;20040;-63
2022/06/06 10:17:51;;;;;;;2.42;1.92;;;17.70;99.90;;;;;;5037677;28;20441;-63
2022/06/06 10:20:58;;;;;;;1.95;1.25;;;17.60;99.90;;;;;;4996698;28;20040;-62
2022/06/06 10:23:55;;;;;;;2.53;1.35;;;17.50;99.90;;;;;;5038167;28;20403;-62
2022/06/06 10:26:27;;;;;;;3.42;1.42;;;17.70;99.90;;;;;;5040568;28;20063;-60
2022/06/06 10:28:55;;;;;;;6.10;1.60;;;17.70;99.90;;;;;;5041761;28;20522;-60
2022/06/06 10:31:48;;;;;;;8.88;1.67;;;17.60;99.90;;;;;;5039636;28;20032;-63
2022/06/06 10:34:51;;;;;;;3.53;1.25;;;17.50;99.90;;;;;;5040284;28;20025;-63
2022/06/06 10:37:36;;;;;;;4.43;1.50;;;17.40;99.90;;;;;;5040284;28;20040;-59
2022/06/06 10:40:20;;;;;;;;;;;17.30;99.90;;;;;;5038734;28;20044;-61
2022/06/06 10:43:10;;;;;;;3.72;1.40;;;17.30;99.90;;;;;;5041953;28;19999;-61
2022/06/06 10:45:53;;;;;;;1.27;1.17;;;17.20;99.90;;;;;;5043154;28;20131;-59
2022/06/06 10:48:28;;;;;;;2.55;1.33;;;17.30;99.90;;;;;;5047592;28;20045;-60
2022/06/06 10:54:24;;;;;;;5.70;1.20;;;17.40;99.90;;;;;;5043427;28;20036;-63
2022/06/06 10:57:18;;;;;;;1.35;0.90;;;17.40;99.90;;;;;;5051541;28;20052;-60
2022/06/06 11:00:13;;;;;;;3.85;1.00;;;17.30;99.90;;;;;;5043875;28;20021;-61
2022/06/06 11:02:38;;;;;;;;;;;17.30;99.90;;;;;;5054356;22;20036;-61
2022/06/06 11:05:30;;;;;;;1.73;1.17;;;17.30;99.90;;;;;;5059969;28;19912;-62
2022/06/06 11:08:28;;;;;;;1.27;1.13;;;17.40;99.90;;;;;;5063905;28;20028;-62
2022/06/06 11:11:26;;;;;;;5.47;1.30;;;17.70;99.90;;;;;;5060108;28;20039;-66
2022/06/06 11:14:25;;;;;;;3.55;1.10;;;17.90;99.90;;;;;;5055480;28;20167;-61
2022/06/06 11:17:08;;;;;;;2.42;1.05;;;18.00;99.90;;;;;;5049645;28;20103;-62
2022/06/06 11:19:52;;;;;;;1.60;1.10;;;18.30;99.90;;;;;;5046363;28;20028;-65
2022/06/06 11:22:41;;;;;;;1.92;1.30;;;18.50;99.90;;;;;;5044565;28;20051;-61
2022/06/06 11:25:26;;;;;;;3.15;1.30;;;18.40;99.90;;;;;;5049336;28;20036;-64
2022/06/06 11:27:58;;;;;;;1.58;1.30;;;18.80;99.90;;;;;;5046054;28;20024;-62
2022/06/06 11:30:42;;;;;;;3.42;1.25;;;19.00;99.90;;;;;;5048276;28;20372;-63
2022/06/06 11:33:25;;;;;;;4.00;0.90;;;19.50;99.90;;;;;;5043417;28;20555;-65
2022/06/06 11:36:17;;;;;;;4.05;0.95;;;19.90;99.90;;;;;;5041844;28;20032;-61
2022/06/06 11:39:20;;;;;;;1.20;0.80;;;20.20;99.90;;;;;;5043215;28;21885;-62
2022/06/06 11:42:23;;;;;;;0.82;0.82;;;20.40;99.90;;;;;;5040968;28;20147;-61
2022/06/06 11:45:06;;;;;;;1.08;0.90;;;20.50;99.90;;;;;;5044877;28;20074;-63
2022/06/06 11:47:52;;;;;;;2.58;0.70;;;20.80;99.90;;;;;;5039562;28;20060;-61
2022/06/06 11:50:53;;;;;;;0.98;0.75;;;20.60;99.90;;;;;;5046709;28;20033;-61
2022/06/06 11:53:25;;;;;;;1.08;0.65;;;20.80;99.90;;;;;;5044690;28;20024;-65
2022/06/06 11:56:02;;;;;;;1.08;0.80;;;20.70;99.90;;;;;;5048190;28;20038;-62
2022/06/06 11:59:01;;;;;;;2.10;1.02;;;20.60;99.90;;;;;;5046562;28;20031;-63
2022/06/06 12:02:04;;;;;;;0.77;0.77;;;20.90;99.90;;;;;;5043304;28;20033;-61
2022/06/06 12:04:50;;;;;;;4.43;0.95;;;21.20;99.90;;;;;;5045267;28;20029;-65
2022/06/06 12:07:37;;;;;;;0.82;0.65;;;21.50;99.90;;;;;;5050653;28;20031;-62
2022/06/06 12:10:11;;;;;;;0.82;0.60;;;21.40;99.90;;;;;;5052072;28;20091;-63
2022/06/06 12:12:56;;;;;;;;;;;21.80;99.90;;;;;;5047630;28;20029;-63
2022/06/06 12:15:43;;;;;;;1.85;0.75;;;22.00;99.90;;;;;;5048884;28;19909;-62
2022/06/06 12:18:12;;;;;;;1.13;0.77;;;22.10;99.90;;;;;;5046146;28;20025;-63
2022/06/06 12:20:47;;;;;;;4.47;0.90;;;22.20;99.90;;;;;;5050198;28;20107;-62
2022/06/06 12:23:17;;;;;;;0.60;0.60;;;22.30;99.90;;;;;;5051633;28;20090;-65
2022/06/06 12:26:13;;;;;;;3.17;0.80;;;22.30;99.90;;;;;;5048415;28;20029;-63
2022/06/06 12:29:01;;;;;;;1.65;0.50;;;22.40;99.90;;;;;;5042621;28;20104;-62
2022/06/06 12:31:56;;;;;;;1.38;0.75;;;22.30;99.90;;;;;;5045770;28;20112;-62
2022/06/06 12:34:43;;;;;;;0.65;0.60;;;22.40;99.90;;;;;;5047583;28;20032;-61
2022/06/06 12:37:20;;;;;;;6.90;0.80;;;22.70;99.90;;;;;;5051386;28;20533;-61
2022/06/06 12:39:58;;;;;;;0.98;0.60;;;22.70;99.90;;;;;;5046170;28;20029;-63
2022/06/06 12:42:51;;;;;;;3.50;0.68;;;22.70;99.90;;;;;;5046705;28;20029;-62
2022/06/06 12:45:39;;;;;;;0.90;0.70;;;22.90;99.90;;;;;;5043145;28;20061;-66
2022/06/06 12:48:49;;;;;;;1.98;0.60;;;23.10;99.90;;;;;;5050389;28;20024;-61
2022/06/06 12:51:25;;;;;;;1.83;0.80;;;22.70;99.90;;;;;;5044891;28;20161;-67
2022/06/06 12:53:54;;;;;;;2.83;0.60;;;22.80;99.90;;;;;;5048894;28;20029;-66
2022/06/06 12:56:45;;;;;;;2.70;0.82;;;22.90;99.90;;;;;;5043835;28;20029;-62
2022/06/06 12:59:29;;;;;;;1.75;0.50;;;22.70;99.90;;;;;;5048139;28;20491;-63
2022/06/06 13:01:59;;;;;;;2.97;0.40;;;22.50;99.90;;;;;;5047624;28;20852;-63
2022/06/06 13:05:02;;;;;;;1.58;0.70;;;22.40;99.90;;;;;;5049567;28;20065;-63
2022/06/06 13:07:53;;;;;;;5.45;0.80;;;22.70;99.90;;;;;;5048318;28;20028;-62
2022/06/06 13:10:19;;;;;;;1.00;0.95;;;23.60;99.90;;;;;;5047021;28;20032;-63
2022/06/06 13:13:09;;;;;;;1.55;0.93;;;24.10;99.90;;;;;;5046321;28;20033;-62
2022/06/06 13:15:56;;;;;;;8.20;0.95;;;23.60;99.90;;;;;;5045827;28;20087;-63
2022/06/06 13:18:36;;;;;;;1.48;0.90;;;23.10;99.90;;;;;;5044816;28;20060;-61
2022/06/06 13:21:10;;;;;;;6.82;2.15;;;23.20;99.90;;;;;;5048714;28;20032;-60
2022/06/06 13:24:06;;;;;;;4.68;0.90;;;22.50;99.90;;;;;;5042804;28;20037;-62
2022/06/06 13:26:46;;;;;;;4.55;0.68;;;22.30;99.90;;;;;;5045479;28;20091;-61
2022/06/06 13:29:27;;;;;;;1.88;0.82;;;22.30;99.90;;;;;;5046532;28;20021;-59
2022/06/06 13:32:15;;;;;;;1.23;0.73;;;22.80;99.90;;;;;;5052730;28;20033;-58
2022/06/06 13:35:03;;;;;;;1.45;0.75;;;23.00;99.90;;;;;;5038716;28;20688;-59
2022/06/06 13:38:10;;;;;;;1.63;0.75;;;22.80;99.90;;;;;;5048592;28;20029;-58
2022/06/06 13:40:37;;;;;;;1.65;0.75;;;22.90;99.90;;;;;;5045553;28;20256;-60
2022/06/06 13:43:45;;;;;;;4.15;0.80;;;22.80;99.90;;;;;;5048194;28;20040;-59
2022/06/06 13:46:10;;;;;;;4.88;0.63;;;23.10;99.90;;;;;;5041690;28;20483;-60
2022/06/06 13:49:03;;;;;;;4.47;0.63;;;23.40;99.90;;;;;;5046268;28;20043;-60
2022/06/06 13:51:41;;;;;;;5.80;2.22;;;23.80;99.90;;;;;;5041976;28;20027;-61
2022/06/06 13:54:26;;;;;;;1.30;0.60;;;24.50;99.90;;;;;;5044697;28;20029;-56
2022/06/06 13:57:22;;;;;;;3.97;0.75;;;24.70;99.90;;;;;;5040491;28;20499;-59
2022/06/06 14:00:12;;;;;;;0.95;0.60;;;24.20;99.90;;;;;;5042514;28;20040;-59
2022/06/06 14:02:37;;;;;;;2.72;0.80;;;24.40;99.90;;;;;;5044601;28;20072;-60
2022/06/06 14:05:50;;;;;;;0.95;0.55;;;24.40;99.90;;;;;;5048252;28;20052;-57
2022/06/06 14:08:20;;;;;;;1.10;0.52;;;24.80;99.90;;;;;;5026566;28;20029;-59
2022/06/06 14:10:53;;;;;;;1.10;0.60;;;24.80;99.90;;;;;;5048336;28;20853;-62
2022/06/06 14:13:53;;;;;;;3.50;0.43;;;24.80;99.90;;;;;;5040990;28;20025;-66
2022/06/06 14:16:35;;;;;;;2.15;0.60;;;25.20;99.90;;;;;;5045756;28;20025;-60
2022/06/06 14:19:22;;;;;;;1.63;0.60;;;25.10;99.90;;;;;;5042340;28;20205;-58
2022/06/06 14:21:54;;;;;;;1.75;0.60;;;25.00;99.70;;;;;;5045207;28;20556;-61